sensor_id;sensor_type;location;lat;lon;timestamp;P1;durP1;ratioP1;P2;durP2;ratioP2
62584;SDS011;48643;51.670;5.808;2023-05-23T00:00:51;5.53;;;3.70;;
62584;SDS011;48643;51.670;5.808;2023-05-23T00:03:17;6.07;;;3.47;;
62584;SDS011;48643;51.670;5.808;2023-05-23T00:05:48;5.38;;;3.85;;
62584;SDS011;48643;51.670;5.808;2023-05-23T00:08:15;7.38;;;3.70;;
62584;SDS011;48643;51.670;5.808;2023-05-23T00:10:43;5.63;;;4.05;;
62584;SDS011;48643;51.670;5.808;2023-05-23T00:13:10;4.90;;;3.67;;
62584;SDS011;48643;51.670;5.808;2023-05-23T00:15:40;7.55;;;3.72;;
62584;SDS011;48643;51.670;5.808;2023-05-23T00:18:11;4.25;;;3.22;;
62584;SDS011;48643;51.670;5.808;2023-05-23T00:20:38;5.25;;;3.75;;
62584;SDS011;48643;51.670;5.808;2023-05-23T00:25:35;6.27;;;4.03;;
62584;SDS011;48643;51.670;5.808;2023-05-23T00:28:03;7.67;;;3.80;;
62584;SDS011;48643;51.670;5.808;2023-05-23T00:30:32;5.43;;;3.60;;
62584;SDS011;48643;51.670;5.808;2023-05-23T00:32:59;6.25;;;3.95;;
62584;SDS011;48643;51.670;5.808;2023-05-23T00:35:26;7.45;;;3.85;;
62584;SDS011;48643;51.670;5.808;2023-05-23T00:37:53;6.57;;;3.92;;
62584;SDS011;48643;51.670;5.808;2023-05-23T00:40:21;6.22;;;3.53;;
62584;SDS011;48643;51.670;5.808;2023-05-23T00:42:48;5.50;;;3.83;;
62584;SDS011;48643;51.670;5.808;2023-05-23T00:45:15;6.70;;;4.13;;
62584;SDS011;48643;51.670;5.808;2023-05-23T00:47:42;4.93;;;3.63;;
62584;SDS011;48643;51.670;5.808;2023-05-23T00:50:11;4.72;;;3.67;;
62584;SDS011;48643;51.670;5.808;2023-05-23T00:52:42;7.68;;;4.00;;
62584;SDS011;48643;51.670;5.808;2023-05-23T00:55:11;9.07;;;3.70;;
62584;SDS011;48643;51.670;5.808;2023-05-23T00:57:38;6.25;;;3.78;;
62584;SDS011;48643;51.670;5.808;2023-05-23T01:00:07;5.30;;;3.80;;
62584;SDS011;48643;51.670;5.808;2023-05-23T01:02:39;5.65;;;3.63;;
62584;SDS011;48643;51.670;5.808;2023-05-23T01:05:11;5.75;;;3.95;;
62584;SDS011;48643;51.670;5.808;2023-05-23T01:07:43;5.53;;;3.65;;
62584;SDS011;48643;51.670;5.808;2023-05-23T01:10:21;4.88;;;3.75;;
62584;SDS011;48643;51.670;5.808;2023-05-23T01:18:07;5.00;;;3.85;;
62584;SDS011;48643;51.670;5.808;2023-05-23T01:20:39;6.35;;;3.72;;
62584;SDS011;48643;51.670;5.808;2023-05-23T01:28:45;5.20;;;3.45;;
62584;SDS011;48643;51.670;5.808;2023-05-23T01:33:39;5.25;;;3.67;;
62584;SDS011;48643;51.670;5.808;2023-05-23T01:36:06;7.85;;;4.20;;
62584;SDS011;48643;51.670;5.808;2023-05-23T01:38:34;7.00;;;4.32;;
62584;SDS011;48643;51.670;5.808;2023-05-23T01:41:01;6.43;;;4.10;;
62584;SDS011;48643;51.670;5.808;2023-05-23T01:43:29;5.95;;;4.10;;
62584;SDS011;48643;51.670;5.808;2023-05-23T01:45:56;6.30;;;3.90;;
62584;SDS011;48643;51.670;5.808;2023-05-23T01:48:25;7.68;;;3.92;;
62584;SDS011;48643;51.670;5.808;2023-05-23T01:50:52;4.95;;;4.00;;
62584;SDS011;48643;51.670;5.808;2023-05-23T01:53:20;10.35;;;4.20;;
62584;SDS011;48643;51.670;5.808;2023-05-23T01:55:48;6.25;;;4.07;;
62584;SDS011;48643;51.670;5.808;2023-05-23T01:58:16;6.32;;;3.95;;
62584;SDS011;48643;51.670;5.808;2023-05-23T02:00:44;7.65;;;3.50;;
62584;SDS011;48643;51.670;5.808;2023-05-23T02:03:11;5.65;;;3.83;;
62584;SDS011;48643;51.670;5.808;2023-05-23T02:05:38;5.75;;;4.03;;
62584;SDS011;48643;51.670;5.808;2023-05-23T02:08:06;7.05;;;3.97;;
62584;SDS011;48643;51.670;5.808;2023-05-23T02:10:32;6.55;;;4.03;;
62584;SDS011;48643;51.670;5.808;2023-05-23T02:12:59;7.60;;;3.95;;
62584;SDS011;48643;51.670;5.808;2023-05-23T02:15:27;6.65;;;3.70;;
62584;SDS011;48643;51.670;5.808;2023-05-23T02:17:56;6.90;;;4.03;;
62584;SDS011;48643;51.670;5.808;2023-05-23T02:20:23;5.07;;;3.67;;
62584;SDS011;48643;51.670;5.808;2023-05-23T02:22:51;7.60;;;4.00;;
62584;SDS011;48643;51.670;5.808;2023-05-23T02:25:18;5.20;;;3.70;;
62584;SDS011;48643;51.670;5.808;2023-05-23T02:27:44;5.53;;;3.90;;
62584;SDS011;48643;51.670;5.808;2023-05-23T02:30:11;7.60;;;3.92;;
62584;SDS011;48643;51.670;5.808;2023-05-23T02:32:38;6.30;;;4.13;;
62584;SDS011;48643;51.670;5.808;2023-05-23T02:35:05;5.40;;;3.70;;
62584;SDS011;48643;51.670;5.808;2023-05-23T02:37:33;7.32;;;3.75;;
62584;SDS011;48643;51.670;5.808;2023-05-23T02:40:00;5.03;;;3.47;;
62584;SDS011;48643;51.670;5.808;2023-05-23T02:42:27;7.40;;;3.78;;
62584;SDS011;48643;51.670;5.808;2023-05-23T02:44:54;5.03;;;3.63;;
62584;SDS011;48643;51.670;5.808;2023-05-23T02:47:21;6.53;;;4.00;;
62584;SDS011;48643;51.670;5.808;2023-05-23T02:49:48;5.40;;;3.78;;
62584;SDS011;48643;51.670;5.808;2023-05-23T02:52:16;10.23;;;4.22;;
62584;SDS011;48643;51.670;5.808;2023-05-23T02:54:43;6.20;;;3.90;;
62584;SDS011;48643;51.670;5.808;2023-05-23T02:57:09;6.82;;;3.78;;
62584;SDS011;48643;51.670;5.808;2023-05-23T02:59:38;6.03;;;4.00;;
62584;SDS011;48643;51.670;5.808;2023-05-23T03:02:06;6.53;;;3.80;;
62584;SDS011;48643;51.670;5.808;2023-05-23T03:04:33;5.82;;;3.88;;
62584;SDS011;48643;51.670;5.808;2023-05-23T03:07:00;7.07;;;3.70;;
62584;SDS011;48643;51.670;5.808;2023-05-23T03:09:32;6.32;;;3.70;;
62584;SDS011;48643;51.670;5.808;2023-05-23T03:12:01;7.82;;;3.88;;
62584;SDS011;48643;51.670;5.808;2023-05-23T03:14:28;6.85;;;4.00;;
62584;SDS011;48643;51.670;5.808;2023-05-23T03:16:55;7.22;;;4.05;;
62584;SDS011;48643;51.670;5.808;2023-05-23T03:19:22;7.72;;;3.67;;
62584;SDS011;48643;51.670;5.808;2023-05-23T03:21:49;6.82;;;4.05;;
62584;SDS011;48643;51.670;5.808;2023-05-23T03:24:17;7.78;;;3.80;;
62584;SDS011;48643;51.670;5.808;2023-05-23T03:26:44;6.78;;;3.92;;
62584;SDS011;48643;51.670;5.808;2023-05-23T03:29:11;7.28;;;3.90;;
62584;SDS011;48643;51.670;5.808;2023-05-23T03:31:38;5.80;;;3.92;;
62584;SDS011;48643;51.670;5.808;2023-05-23T03:34:05;5.53;;;3.58;;
62584;SDS011;48643;51.670;5.808;2023-05-23T03:36:34;7.55;;;3.83;;
62584;SDS011;48643;51.670;5.808;2023-05-23T03:39:04;5.22;;;3.70;;
62584;SDS011;48643;51.670;5.808;2023-05-23T03:41:32;6.45;;;3.85;;
62584;SDS011;48643;51.670;5.808;2023-05-23T03:43:59;7.50;;;4.50;;
62584;SDS011;48643;51.670;5.808;2023-05-23T03:46:26;6.10;;;3.88;;
62584;SDS011;48643;51.670;5.808;2023-05-23T03:48:53;5.85;;;3.63;;
62584;SDS011;48643;51.670;5.808;2023-05-23T03:51:21;6.20;;;3.72;;
62584;SDS011;48643;51.670;5.808;2023-05-23T03:53:49;6.97;;;3.80;;
62584;SDS011;48643;51.670;5.808;2023-05-23T03:56:16;5.93;;;4.00;;
62584;SDS011;48643;51.670;5.808;2023-05-23T03:58:43;7.05;;;3.88;;
62584;SDS011;48643;51.670;5.808;2023-05-23T04:01:13;5.72;;;3.95;;
62584;SDS011;48643;51.670;5.808;2023-05-23T04:03:40;5.40;;;3.83;;
62584;SDS011;48643;51.670;5.808;2023-05-23T04:06:07;7.40;;;3.75;;
62584;SDS011;48643;51.670;5.808;2023-05-23T04:08:38;5.65;;;3.90;;
62584;SDS011;48643;51.670;5.808;2023-05-23T04:11:07;6.78;;;4.18;;
62584;SDS011;48643;51.670;5.808;2023-05-23T04:13:36;8.32;;;4.20;;
62584;SDS011;48643;51.670;5.808;2023-05-23T04:16:04;6.22;;;3.92;;
62584;SDS011;48643;51.670;5.808;2023-05-23T04:18:31;4.97;;;3.72;;
62584;SDS011;48643;51.670;5.808;2023-05-23T04:21:06;6.13;;;3.85;;
62584;SDS011;48643;51.670;5.808;2023-05-23T04:23:37;5.88;;;3.80;;
62584;SDS011;48643;51.670;5.808;2023-05-23T04:26:05;8.20;;;4.30;;
62584;SDS011;48643;51.670;5.808;2023-05-23T04:31:01;5.55;;;3.70;;
62584;SDS011;48643;51.670;5.808;2023-05-23T04:33:32;5.82;;;3.83;;
62584;SDS011;48643;51.670;5.808;2023-05-23T04:36:01;8.25;;;4.10;;
62584;SDS011;48643;51.670;5.808;2023-05-23T04:38:30;6.65;;;3.83;;
62584;SDS011;48643;51.670;5.808;2023-05-23T04:40:57;5.38;;;3.72;;
62584;SDS011;48643;51.670;5.808;2023-05-23T04:43:53;6.93;;;4.20;;
62584;SDS011;48643;51.670;5.808;2023-05-23T04:46:26;6.95;;;4.05;;
62584;SDS011;48643;51.670;5.808;2023-05-23T04:49:23;7.38;;;3.90;;
62584;SDS011;48643;51.670;5.808;2023-05-23T04:51:51;5.93;;;3.72;;
62584;SDS011;48643;51.670;5.808;2023-05-23T04:54:28;6.32;;;4.03;;
62584;SDS011;48643;51.670;5.808;2023-05-23T04:56:57;5.60;;;3.58;;
62584;SDS011;48643;51.670;5.808;2023-05-23T04:59:26;8.43;;;3.97;;
62584;SDS011;48643;51.670;5.808;2023-05-23T05:01:53;7.60;;;4.20;;
62584;SDS011;48643;51.670;5.808;2023-05-23T05:04:19;6.28;;;3.90;;
62584;SDS011;48643;51.670;5.808;2023-05-23T05:06:49;7.63;;;4.10;;
62584;SDS011;48643;51.670;5.808;2023-05-23T05:09:16;9.07;;;3.72;;
62584;SDS011;48643;51.670;5.808;2023-05-23T05:11:44;7.30;;;3.92;;
62584;SDS011;48643;51.670;5.808;2023-05-23T05:14:12;8.02;;;4.20;;
62584;SDS011;48643;51.670;5.808;2023-05-23T05:16:39;8.40;;;3.80;;
62584;SDS011;48643;51.670;5.808;2023-05-23T05:21:35;8.57;;;4.07;;
62584;SDS011;48643;51.670;5.808;2023-05-23T05:24:02;8.02;;;4.03;;
62584;SDS011;48643;51.670;5.808;2023-05-23T05:26:30;6.50;;;4.13;;
62584;SDS011;48643;51.670;5.808;2023-05-23T05:28:57;10.23;;;4.43;;
62584;SDS011;48643;51.670;5.808;2023-05-23T05:31:25;6.78;;;4.03;;
62584;SDS011;48643;51.670;5.808;2023-05-23T05:33:52;7.80;;;4.10;;
62584;SDS011;48643;51.670;5.808;2023-05-23T05:36:19;7.35;;;4.30;;
62584;SDS011;48643;51.670;5.808;2023-05-23T05:38:48;9.05;;;3.92;;
62584;SDS011;48643;51.670;5.808;2023-05-23T05:41:17;8.30;;;3.95;;
62584;SDS011;48643;51.670;5.808;2023-05-23T05:43:47;8.50;;;4.35;;
62584;SDS011;48643;51.670;5.808;2023-05-23T05:46:14;7.65;;;4.43;;
62584;SDS011;48643;51.670;5.808;2023-05-23T05:48:41;8.65;;;4.18;;
62584;SDS011;48643;51.670;5.808;2023-05-23T05:51:12;9.80;;;4.30;;
62584;SDS011;48643;51.670;5.808;2023-05-23T05:53:40;8.15;;;3.95;;
62584;SDS011;48643;51.670;5.808;2023-05-23T05:56:07;9.73;;;4.45;;
62584;SDS011;48643;51.670;5.808;2023-05-23T05:58:36;7.80;;;4.25;;
62584;SDS011;48643;51.670;5.808;2023-05-23T06:01:08;8.40;;;4.18;;
62584;SDS011;48643;51.670;5.808;2023-05-23T06:03:35;7.55;;;4.00;;
62584;SDS011;48643;51.670;5.808;2023-05-23T06:06:02;8.90;;;4.18;;
62584;SDS011;48643;51.670;5.808;2023-05-23T06:08:29;8.20;;;4.40;;
62584;SDS011;48643;51.670;5.808;2023-05-23T06:10:56;10.35;;;4.40;;
62584;SDS011;48643;51.670;5.808;2023-05-23T06:13:24;9.50;;;4.47;;
62584;SDS011;48643;51.670;5.808;2023-05-23T06:15:52;9.23;;;4.43;;
62584;SDS011;48643;51.670;5.808;2023-05-23T06:18:20;14.27;;;5.22;;
62584;SDS011;48643;51.670;5.808;2023-05-23T06:20:47;15.93;;;5.28;;
62584;SDS011;48643;51.670;5.808;2023-05-23T06:23:15;19.42;;;5.80;;
62584;SDS011;48643;51.670;5.808;2023-05-23T06:25:44;16.25;;;5.40;;
62584;SDS011;48643;51.670;5.808;2023-05-23T06:28:11;12.35;;;4.50;;
62584;SDS011;48643;51.670;5.808;2023-05-23T06:30:38;13.52;;;4.68;;
62584;SDS011;48643;51.670;5.808;2023-05-23T06:33:06;15.88;;;4.85;;
62584;SDS011;48643;51.670;5.808;2023-05-23T06:35:34;11.85;;;5.05;;
62584;SDS011;48643;51.670;5.808;2023-05-23T06:38:00;15.25;;;4.70;;
62584;SDS011;48643;51.670;5.808;2023-05-23T06:40:28;13.32;;;4.50;;
62584;SDS011;48643;51.670;5.808;2023-05-23T06:42:55;15.38;;;4.65;;
62584;SDS011;48643;51.670;5.808;2023-05-23T06:45:30;13.48;;;4.50;;
62584;SDS011;48643;51.670;5.808;2023-05-23T06:48:01;13.38;;;4.50;;
62584;SDS011;48643;51.670;5.808;2023-05-23T06:50:29;17.25;;;4.50;;
62584;SDS011;48643;51.670;5.808;2023-05-23T06:52:56;12.38;;;4.30;;
62584;SDS011;48643;51.670;5.808;2023-05-23T06:55:23;11.13;;;4.03;;
62584;SDS011;48643;51.670;5.808;2023-05-23T06:57:50;10.52;;;3.95;;
62584;SDS011;48643;51.670;5.808;2023-05-23T07:00:19;15.05;;;3.67;;
62584;SDS011;48643;51.670;5.808;2023-05-23T07:03:09;10.68;;;3.90;;
62584;SDS011;48643;51.670;5.808;2023-05-23T07:05:37;16.52;;;4.20;;
62584;SDS011;48643;51.670;5.808;2023-05-23T07:08:08;11.43;;;3.90;;
62584;SDS011;48643;51.670;5.808;2023-05-23T07:10:37;13.93;;;4.28;;
62584;SDS011;48643;51.670;5.808;2023-05-23T07:13:21;10.48;;;3.80;;
62584;SDS011;48643;51.670;5.808;2023-05-23T07:15:48;13.85;;;4.30;;
62584;SDS011;48643;51.670;5.808;2023-05-23T07:18:16;14.05;;;3.90;;
62584;SDS011;48643;51.670;5.808;2023-05-23T07:20:43;14.00;;;3.85;;
62584;SDS011;48643;51.670;5.808;2023-05-23T07:23:14;12.95;;;3.97;;
62584;SDS011;48643;51.670;5.808;2023-05-23T07:25:43;9.13;;;3.80;;
62584;SDS011;48643;51.670;5.808;2023-05-23T07:28:32;10.90;;;4.00;;
62584;SDS011;48643;51.670;5.808;2023-05-23T07:31:00;11.25;;;4.28;;
62584;SDS011;48643;51.670;5.808;2023-05-23T07:33:28;8.80;;;3.97;;
62584;SDS011;48643;51.670;5.808;2023-05-23T07:35:59;11.27;;;3.85;;
62584;SDS011;48643;51.670;5.808;2023-05-23T07:38:26;12.80;;;3.95;;
62584;SDS011;48643;51.670;5.808;2023-05-23T07:40:54;11.82;;;4.15;;
62584;SDS011;48643;51.670;5.808;2023-05-23T07:43:35;11.52;;;4.00;;
62584;SDS011;48643;51.670;5.808;2023-05-23T07:46:03;9.88;;;4.07;;
62584;SDS011;48643;51.670;5.808;2023-05-23T07:48:30;8.25;;;4.00;;
62584;SDS011;48643;51.670;5.808;2023-05-23T07:50:57;15.57;;;4.53;;
62584;SDS011;48643;51.670;5.808;2023-05-23T07:53:25;9.45;;;4.07;;
62584;SDS011;48643;51.670;5.808;2023-05-23T07:55:52;10.02;;;4.25;;
62584;SDS011;48643;51.670;5.808;2023-05-23T07:58:21;13.30;;;4.40;;
62584;SDS011;48643;51.670;5.808;2023-05-23T08:00:49;12.32;;;4.63;;
62584;SDS011;48643;51.670;5.808;2023-05-23T08:03:44;13.75;;;4.32;;
62584;SDS011;48643;51.670;5.808;2023-05-23T08:06:18;14.15;;;4.68;;
62584;SDS011;48643;51.670;5.808;2023-05-23T08:08:45;14.10;;;4.30;;
62584;SDS011;48643;51.670;5.808;2023-05-23T08:11:13;10.18;;;4.47;;
62584;SDS011;48643;51.670;5.808;2023-05-23T08:13:44;15.27;;;4.70;;
62584;SDS011;48643;51.670;5.808;2023-05-23T08:16:41;13.52;;;5.00;;
62584;SDS011;48643;51.670;5.808;2023-05-23T08:19:16;14.38;;;5.00;;
62584;SDS011;48643;51.670;5.808;2023-05-23T08:21:44;14.20;;;5.10;;
62584;SDS011;48643;51.670;5.808;2023-05-23T08:24:12;14.75;;;5.13;;
62584;SDS011;48643;51.670;5.808;2023-05-23T08:26:40;15.18;;;5.25;;
62584;SDS011;48643;51.670;5.808;2023-05-23T08:29:10;18.30;;;5.43;;
62584;SDS011;48643;51.670;5.808;2023-05-23T08:31:37;21.77;;;5.68;;
62584;SDS011;48643;51.670;5.808;2023-05-23T08:34:05;15.30;;;5.40;;
62584;SDS011;48643;51.670;5.808;2023-05-23T08:36:35;12.23;;;4.95;;
62584;SDS011;48643;51.670;5.808;2023-05-23T08:39:07;14.07;;;5.10;;
62584;SDS011;48643;51.670;5.808;2023-05-23T08:41:42;16.85;;;5.30;;
62584;SDS011;48643;51.670;5.808;2023-05-23T08:44:10;15.80;;;5.28;;
62584;SDS011;48643;51.670;5.808;2023-05-23T08:46:45;11.20;;;4.70;;
62584;SDS011;48643;51.670;5.808;2023-05-23T08:49:25;16.17;;;5.03;;
62584;SDS011;48643;51.670;5.808;2023-05-23T08:51:53;18.35;;;4.93;;
62584;SDS011;48643;51.670;5.808;2023-05-23T08:54:23;15.75;;;4.47;;
62584;SDS011;48643;51.670;5.808;2023-05-23T08:56:50;16.30;;;4.78;;
62584;SDS011;48643;51.670;5.808;2023-05-23T08:59:18;12.73;;;4.75;;
62584;SDS011;48643;51.670;5.808;2023-05-23T09:01:46;10.18;;;4.20;;
62584;SDS011;48643;51.670;5.808;2023-05-23T09:04:15;17.23;;;4.78;;
62584;SDS011;48643;51.670;5.808;2023-05-23T09:06:56;11.57;;;4.45;;
62584;SDS011;48643;51.670;5.808;2023-05-23T09:09:23;12.77;;;4.40;;
62584;SDS011;48643;51.670;5.808;2023-05-23T09:11:51;11.23;;;4.20;;
62584;SDS011;48643;51.670;5.808;2023-05-23T09:14:19;13.48;;;4.38;;
62584;SDS011;48643;51.670;5.808;2023-05-23T09:16:50;13.80;;;3.78;;
62584;SDS011;48643;51.670;5.808;2023-05-23T09:19:21;13.95;;;3.60;;
62584;SDS011;48643;51.670;5.808;2023-05-23T09:21:54;14.77;;;3.95;;
62584;SDS011;48643;51.670;5.808;2023-05-23T09:24:33;13.32;;;3.95;;
62584;SDS011;48643;51.670;5.808;2023-05-23T09:27:04;10.52;;;3.65;;
62584;SDS011;48643;51.670;5.808;2023-05-23T09:29:37;13.25;;;4.15;;
62584;SDS011;48643;51.670;5.808;2023-05-23T09:32:10;10.00;;;3.88;;
62584;SDS011;48643;51.670;5.808;2023-05-23T09:34:39;12.27;;;3.75;;
62584;SDS011;48643;51.670;5.808;2023-05-23T09:39:57;10.25;;;3.63;;
62584;SDS011;48643;51.670;5.808;2023-05-23T09:42:32;10.43;;;3.60;;
62584;SDS011;48643;51.670;5.808;2023-05-23T09:44:59;14.65;;;3.80;;
62584;SDS011;48643;51.670;5.808;2023-05-23T09:47:30;11.63;;;3.55;;
62584;SDS011;48643;51.670;5.808;2023-05-23T09:49:57;10.52;;;3.80;;
62584;SDS011;48643;51.670;5.808;2023-05-23T09:52:25;14.85;;;4.07;;
62584;SDS011;48643;51.670;5.808;2023-05-23T09:54:52;14.65;;;3.58;;
62584;SDS011;48643;51.670;5.808;2023-05-23T09:57:20;12.90;;;3.78;;
62584;SDS011;48643;51.670;5.808;2023-05-23T09:59:50;13.60;;;3.60;;
62584;SDS011;48643;51.670;5.808;2023-05-23T10:02:23;15.90;;;3.78;;
62584;SDS011;48643;51.670;5.808;2023-05-23T10:05:09;14.07;;;3.45;;
62584;SDS011;48643;51.670;5.808;2023-05-23T10:07:48;11.68;;;3.17;;
62584;SDS011;48643;51.670;5.808;2023-05-23T10:10:15;12.07;;;3.10;;
62584;SDS011;48643;51.670;5.808;2023-05-23T10:12:47;15.18;;;4.18;;
62584;SDS011;48643;51.670;5.808;2023-05-23T10:15:15;17.77;;;3.25;;
62584;SDS011;48643;51.670;5.808;2023-05-23T10:20:13;12.35;;;3.50;;
62584;SDS011;48643;51.670;5.808;2023-05-23T10:22:42;10.98;;;3.28;;
62584;SDS011;48643;51.670;5.808;2023-05-23T10:25:09;12.07;;;3.40;;
62584;SDS011;48643;51.670;5.808;2023-05-23T10:27:36;12.48;;;3.30;;
62584;SDS011;48643;51.670;5.808;2023-05-23T10:30:04;13.50;;;3.70;;
62584;SDS011;48643;51.670;5.808;2023-05-23T10:32:36;13.05;;;3.40;;
62584;SDS011;48643;51.670;5.808;2023-05-23T10:37:35;10.65;;;3.38;;
62584;SDS011;48643;51.670;5.808;2023-05-23T10:40:09;16.02;;;3.55;;
62584;SDS011;48643;51.670;5.808;2023-05-23T10:42:52;11.02;;;3.30;;
62584;SDS011;48643;51.670;5.808;2023-05-23T10:45:28;11.15;;;3.33;;
62584;SDS011;48643;51.670;5.808;2023-05-23T10:47:55;8.02;;;3.20;;
62584;SDS011;48643;51.670;5.808;2023-05-23T10:50:36;9.70;;;3.42;;
62584;SDS011;48643;51.670;5.808;2023-05-23T10:53:05;11.05;;;3.35;;
62584;SDS011;48643;51.670;5.808;2023-05-23T10:55:33;10.57;;;3.50;;
62584;SDS011;48643;51.670;5.808;2023-05-23T10:58:11;9.80;;;3.60;;
62584;SDS011;48643;51.670;5.808;2023-05-23T11:00:53;12.85;;;3.70;;
62584;SDS011;48643;51.670;5.808;2023-05-23T11:09:04;8.45;;;3.58;;
62584;SDS011;48643;51.670;5.808;2023-05-23T11:16:59;6.88;;;2.88;;
62584;SDS011;48643;51.670;5.808;2023-05-23T11:21:59;8.48;;;3.20;;
62584;SDS011;48643;51.670;5.808;2023-05-23T11:24:46;9.57;;;3.00;;
62584;SDS011;48643;51.670;5.808;2023-05-23T11:27:39;9.68;;;3.25;;
62584;SDS011;48643;51.670;5.808;2023-05-23T11:30:08;11.05;;;3.35;;
62584;SDS011;48643;51.670;5.808;2023-05-23T11:32:40;9.10;;;3.22;;
62584;SDS011;48643;51.670;5.808;2023-05-23T11:35:09;11.93;;;3.42;;
62584;SDS011;48643;51.670;5.808;2023-05-23T11:37:37;14.65;;;3.47;;
62584;SDS011;48643;51.670;5.808;2023-05-23T11:42:55;12.43;;;3.50;;
62584;SDS011;48643;51.670;5.808;2023-05-23T11:45:22;9.38;;;3.00;;
62584;SDS011;48643;51.670;5.808;2023-05-23T11:47:49;14.77;;;4.15;;
62584;SDS011;48643;51.670;5.808;2023-05-23T11:50:17;9.70;;;3.50;;
62584;SDS011;48643;51.670;5.808;2023-05-23T11:52:46;12.80;;;3.33;;
62584;SDS011;48643;51.670;5.808;2023-05-23T11:55:20;12.40;;;3.97;;
62584;SDS011;48643;51.670;5.808;2023-05-23T11:57:48;13.82;;;3.55;;
62584;SDS011;48643;51.670;5.808;2023-05-23T12:00:15;7.85;;;3.05;;
62584;SDS011;48643;51.670;5.808;2023-05-23T12:02:44;15.30;;;3.92;;
62584;SDS011;48643;51.670;5.808;2023-05-23T12:05:13;7.43;;;2.90;;
62584;SDS011;48643;51.670;5.808;2023-05-23T12:07:47;13.40;;;3.45;;
62584;SDS011;48643;51.670;5.808;2023-05-23T12:10:15;11.85;;;3.55;;
62584;SDS011;48643;51.670;5.808;2023-05-23T12:12:42;10.65;;;3.05;;
62584;SDS011;48643;51.670;5.808;2023-05-23T12:15:10;11.77;;;3.67;;
62584;SDS011;48643;51.670;5.808;2023-05-23T12:17:38;9.18;;;3.10;;
62584;SDS011;48643;51.670;5.808;2023-05-23T12:20:11;13.00;;;3.45;;
62584;SDS011;48643;51.670;5.808;2023-05-23T12:22:39;7.78;;;3.22;;
62584;SDS011;48643;51.670;5.808;2023-05-23T12:25:08;10.57;;;3.63;;
62584;SDS011;48643;51.670;5.808;2023-05-23T12:27:39;9.77;;;3.28;;
62584;SDS011;48643;51.670;5.808;2023-05-23T12:30:07;9.10;;;3.22;;
62584;SDS011;48643;51.670;5.808;2023-05-23T12:32:39;11.02;;;3.30;;
62584;SDS011;48643;51.670;5.808;2023-05-23T12:35:07;15.00;;;3.80;;
62584;SDS011;48643;51.670;5.808;2023-05-23T12:37:45;15.20;;;4.07;;
62584;SDS011;48643;51.670;5.808;2023-05-23T12:40:13;14.98;;;4.20;;
62584;SDS011;48643;51.670;5.808;2023-05-23T12:45:12;17.40;;;4.07;;
62584;SDS011;48643;51.670;5.808;2023-05-23T12:47:41;12.40;;;3.95;;
62584;SDS011;48643;51.670;5.808;2023-05-23T12:50:08;17.33;;;4.47;;
62584;SDS011;48643;51.670;5.808;2023-05-23T12:52:36;14.73;;;3.35;;
62584;SDS011;48643;51.670;5.808;2023-05-23T12:55:03;15.88;;;4.05;;
62584;SDS011;48643;51.670;5.808;2023-05-23T12:57:32;16.77;;;4.00;;
62584;SDS011;48643;51.670;5.808;2023-05-23T13:00:00;11.88;;;3.60;;
62584;SDS011;48643;51.670;5.808;2023-05-23T13:02:27;13.30;;;4.03;;
62584;SDS011;48643;51.670;5.808;2023-05-23T13:04:54;12.43;;;3.63;;
62584;SDS011;48643;51.670;5.808;2023-05-23T13:07:21;13.63;;;3.85;;
62584;SDS011;48643;51.670;5.808;2023-05-23T13:09:48;12.35;;;3.75;;
62584;SDS011;48643;51.670;5.808;2023-05-23T13:12:15;13.80;;;3.90;;
62584;SDS011;48643;51.670;5.808;2023-05-23T13:14:42;13.43;;;3.75;;
62584;SDS011;48643;51.670;5.808;2023-05-23T13:17:09;14.60;;;4.18;;
62584;SDS011;48643;51.670;5.808;2023-05-23T13:19:36;16.73;;;3.60;;
62584;SDS011;48643;51.670;5.808;2023-05-23T13:22:05;19.27;;;3.73;;
62584;SDS011;48643;51.670;5.808;2023-05-23T13:24:39;13.90;;;4.00;;
62584;SDS011;48643;51.670;5.808;2023-05-23T13:27:10;11.10;;;3.38;;
62584;SDS011;48643;51.670;5.808;2023-05-23T13:29:37;14.27;;;3.30;;
62584;SDS011;48643;51.670;5.808;2023-05-23T13:32:04;16.45;;;3.60;;
62584;SDS011;48643;51.670;5.808;2023-05-23T13:34:31;17.92;;;3.92;;
62584;SDS011;48643;51.670;5.808;2023-05-23T13:39:27;17.55;;;3.70;;
62584;SDS011;48643;51.670;5.808;2023-05-23T13:41:54;17.85;;;3.85;;
62584;SDS011;48643;51.670;5.808;2023-05-23T13:44:21;10.90;;;3.33;;
62584;SDS011;48643;51.670;5.808;2023-05-23T13:46:48;15.25;;;4.20;;
62584;SDS011;48643;51.670;5.808;2023-05-23T13:49:15;16.23;;;4.10;;
62584;SDS011;48643;51.670;5.808;2023-05-23T13:51:42;17.45;;;4.28;;
62584;SDS011;48643;51.670;5.808;2023-05-23T13:54:09;18.15;;;4.60;;
62584;SDS011;48643;51.670;5.808;2023-05-23T13:56:37;15.13;;;4.32;;
62584;SDS011;48643;51.670;5.808;2023-05-23T13:59:05;17.02;;;4.40;;
62584;SDS011;48643;51.670;5.808;2023-05-23T14:01:32;20.52;;;3.95;;
62584;SDS011;48643;51.670;5.808;2023-05-23T14:03:59;10.40;;;3.20;;
62584;SDS011;48643;51.670;5.808;2023-05-23T14:06:26;12.55;;;3.80;;
62584;SDS011;48643;51.670;5.808;2023-05-23T14:08:53;10.43;;;3.00;;
62584;SDS011;48643;51.670;5.808;2023-05-23T14:11:21;15.35;;;3.50;;
62584;SDS011;48643;51.670;5.808;2023-05-23T14:13:48;9.95;;;3.05;;
62584;SDS011;48643;51.670;5.808;2023-05-23T14:16:15;16.05;;;3.80;;
62584;SDS011;48643;51.670;5.808;2023-05-23T14:18:41;10.82;;;3.25;;
62584;SDS011;48643;51.670;5.808;2023-05-23T14:21:09;16.35;;;3.72;;
62584;SDS011;48643;51.670;5.808;2023-05-23T14:23:36;13.95;;;3.63;;
62584;SDS011;48643;51.670;5.808;2023-05-23T14:26:02;11.02;;;3.55;;
62584;SDS011;48643;51.670;5.808;2023-05-23T14:28:30;17.77;;;3.90;;
62584;SDS011;48643;51.670;5.808;2023-05-23T14:30:57;18.30;;;3.53;;
62584;SDS011;48643;51.670;5.808;2023-05-23T14:33:24;16.67;;;3.80;;
62584;SDS011;48643;51.670;5.808;2023-05-23T14:35:51;17.13;;;3.60;;
62584;SDS011;48643;51.670;5.808;2023-05-23T14:38:18;16.73;;;4.10;;
62584;SDS011;48643;51.670;5.808;2023-05-23T14:40:45;19.10;;;3.92;;
62584;SDS011;48643;51.670;5.808;2023-05-23T14:43:14;16.90;;;3.92;;
62584;SDS011;48643;51.670;5.808;2023-05-23T14:45:41;12.43;;;3.45;;
62584;SDS011;48643;51.670;5.808;2023-05-23T14:48:09;13.50;;;3.50;;
62584;SDS011;48643;51.670;5.808;2023-05-23T14:50:37;15.98;;;3.55;;
62584;SDS011;48643;51.670;5.808;2023-05-23T14:53:04;12.57;;;3.50;;
62584;SDS011;48643;51.670;5.808;2023-05-23T14:55:31;13.15;;;3.22;;
62584;SDS011;48643;51.670;5.808;2023-05-23T14:57:58;12.90;;;3.20;;
62584;SDS011;48643;51.670;5.808;2023-05-23T15:00:26;16.52;;;3.28;;
62584;SDS011;48643;51.670;5.808;2023-05-23T15:02:53;11.05;;;3.10;;
62584;SDS011;48643;51.670;5.808;2023-05-23T15:05:20;12.55;;;3.22;;
62584;SDS011;48643;51.670;5.808;2023-05-23T15:07:47;17.05;;;3.42;;
62584;SDS011;48643;51.670;5.808;2023-05-23T15:10:14;17.27;;;3.35;;
62584;SDS011;48643;51.670;5.808;2023-05-23T15:12:41;12.18;;;3.35;;
62584;SDS011;48643;51.670;5.808;2023-05-23T15:15:08;17.10;;;3.65;;
62584;SDS011;48643;51.670;5.808;2023-05-23T15:17:36;11.90;;;3.40;;
62584;SDS011;48643;51.670;5.808;2023-05-23T15:20:04;11.93;;;3.13;;
62584;SDS011;48643;51.670;5.808;2023-05-23T15:25:06;13.93;;;3.75;;
62584;SDS011;48643;51.670;5.808;2023-05-23T15:27:34;11.68;;;3.08;;
62584;SDS011;48643;51.670;5.808;2023-05-23T15:30:01;15.65;;;3.50;;
62584;SDS011;48643;51.670;5.808;2023-05-23T15:32:29;21.92;;;3.65;;
62584;SDS011;48643;51.670;5.808;2023-05-23T15:34:56;12.90;;;3.20;;
62584;SDS011;48643;51.670;5.808;2023-05-23T15:37:23;18.30;;;4.20;;
62584;SDS011;48643;51.670;5.808;2023-05-23T15:39:49;14.25;;;3.38;;
62584;SDS011;48643;51.670;5.808;2023-05-23T15:42:16;11.63;;;3.50;;
62584;SDS011;48643;51.670;5.808;2023-05-23T15:44:43;14.73;;;3.38;;